Impacts TAF Board
For situational awareness. Not to be used for flight planning purposes.
IDs:

KSFO - San Francisco Intl, CA, US

Issued at 0102 UTC 24 Apr 2019
Updated at 0151 UTC 24 Apr 2019
Potential Impact None Slight Moderate High
Time<<24/14Z 24/15Z 24/16Z 24/17Z 24/18Z 24/19Z 24/20Z 24/21Z 24/22Z 24/23Z 25/00Z 25/01Z 25/02Z>>
Type PRVL PRVL PRVL PRVL PRVL PRVL PRVL PRVL PRVL PRVL PRVL PRVL PRVL
VIS >6 >6 >6 >6 >6 >6 >6 >6 >6 >6 >6 >6 >6
CIG -- -- -- -- -- -- -- -- -- -- -- -- --
Cover SKC SKC SKC SKC SKC SKC SKC SKC SKC SKC SKC SKC SKC
FltCat VFR VFR VFR VFR VFR VFR VFR VFR VFR VFR VFR VFR VFR
WX -- -- -- -- -- -- -- -- -- -- -- -- --
WDir VRB VRB VRB VRB VRB VRB VRB 290 290 290 290 290 290
WSpd 4 4 4 4 4 4 4 10 10 10 16 16 16
WGst -- -- -- -- -- -- -- -- -- -- -- -- --
Raw TAF
KSFO 240102Z 2401/2506 29013KT P6SM SCT200
  FM240500 29007KT P6SM SCT200
  FM241200 VRB04KT P6SM SKC
  FM242100 29010KT P6SM SKC
  FM250000 29016KT P6SM SKC
  FM250500 29007KT P6SM SKC


METAR Board
Radar Display
Forecast Discussion
For situational awareness. Not to be used for flight planning purposes.